Time;durP1;ratioP1;P1;durP2;ratioP2;P2;SDS_P1;SDS_P2;PMS_P1;PMS_P2;Temp;Humidity;BMP_temperature;BMP_pressure;BME280_temperature;BME280_humidity;BME280_pressure;Samples;Min_cycle;Max_cycle;Signal;HPM_P1;HPM_P2
2024/01/04 00:00:34;;;;;;;59.38;37.25;;;7.70;99.90;;;;;;4925685;29;20032;-77
2024/01/04 00:03:00;;;;;;;47.53;30.13;;;7.70;99.90;;;;;;4930541;29;20056;-75
2024/01/04 00:05:26;;;;;;;54.50;34.42;;;7.70;99.90;;;;;;4931078;29;20037;-74
2024/01/04 00:07:52;;;;;;;49.50;34.28;;;7.60;99.90;;;;;;4936333;29;20031;-75
2024/01/04 00:10:18;;;;;;;42.00;31.60;;;7.60;99.90;;;;;;4931511;29;20040;-74
2024/01/04 00:12:51;;;;;;;49.05;35.35;;;7.50;99.90;;;;;;4953136;29;20031;-77
2024/01/04 00:15:17;;;;;;;66.28;49.72;;;7.50;99.90;;;;;;4956356;29;20532;-78
2024/01/04 00:17:46;;;;;;;62.63;43.03;;;7.30;99.90;;;;;;4957889;29;20019;-76
2024/01/04 00:20:12;;;;;;;54.30;38.95;;;7.40;99.90;;;;;;4962197;29;20004;-76
2024/01/04 00:22:38;;;;;;;49.53;31.77;;;7.30;99.90;;;;;;4951700;29;20032;-75
2024/01/04 00:25:04;;;;;;;45.88;31.13;;;7.40;99.90;;;;;;4951707;29;20039;-75
2024/01/04 00:27:30;;;;;;;41.65;30.80;;;7.40;99.90;;;;;;4953763;29;20024;-76
2024/01/04 00:29:56;;;;;;;50.85;30.13;;;7.40;99.90;;;;;;4950670;29;20179;-77
2024/01/04 00:32:22;;;;;;;44.55;30.60;;;7.40;99.90;;;;;;4926561;29;20028;-76
2024/01/04 00:34:48;;;;;;;48.10;30.88;;;7.40;99.90;;;;;;4926864;29;20048;-78
2024/01/04 00:37:14;;;;;;;45.70;28.10;;;7.40;99.90;;;;;;4931167;29;20567;-75
2024/01/04 00:39:40;;;;;;;45.22;25.73;;;7.40;99.90;;;;;;4926978;29;20028;-77
2024/01/04 00:42:06;;;;;;;48.47;27.10;;;7.50;99.90;;;;;;4926048;29;20056;-77
2024/01/04 00:44:32;;;;;;;48.95;29.40;;;7.40;99.90;;;;;;4925511;29;20107;-74
2024/01/04 00:46:58;;;;;;;39.40;25.33;;;7.40;99.90;;;;;;4924107;29;20056;-73
2024/01/04 00:49:24;;;;;;;32.45;19.77;;;7.50;99.90;;;;;;4924936;29;20086;-74
2024/01/04 00:51:50;;;;;;;29.25;18.83;;;7.50;99.90;;;;;;4923793;29;20025;-76
2024/01/04 00:54:16;;;;;;;36.45;18.77;;;7.50;99.90;;;;;;4927228;29;20490;-75
2024/01/04 00:56:42;;;;;;;32.67;17.17;;;7.50;99.90;;;;;;4924441;29;20030;-74
2024/01/04 00:59:08;;;;;;;30.23;15.40;;;7.60;99.90;;;;;;4920309;29;20032;-77
2024/01/04 01:01:34;;;;;;;28.00;13.73;;;7.60;99.90;;;;;;4924593;29;20063;-74
2024/01/04 01:04:01;;;;;;;24.38;13.93;;;7.60;99.90;;;;;;4925953;29;20032;-75
2024/01/04 01:06:27;;;;;;;29.75;16.25;;;7.60;99.90;;;;;;4927842;29;20042;-74
2024/01/04 01:08:53;;;;;;;28.88;15.88;;;7.60;99.90;;;;;;4926229;29;20092;-76
2024/01/04 01:11:19;;;;;;;53.63;30.25;;;7.60;99.90;;;;;;4931238;29;20051;-77
2024/01/04 01:13:45;;;;;;;34.38;18.13;;;7.60;99.90;;;;;;4936064;28;20122;-78
2024/01/04 01:16:11;;;;;;;27.83;13.70;;;7.60;99.90;;;;;;4929617;29;20028;-76
2024/01/04 01:18:40;;;;;;;36.10;20.38;;;7.50;99.90;;;;;;4927678;29;20488;-74
2024/01/04 01:21:06;;;;;;;28.58;16.52;;;7.60;99.90;;;;;;4922683;29;20024;-75
2024/01/04 01:23:32;;;;;;;25.02;13.60;;;7.60;99.90;;;;;;4932445;29;20031;-75
2024/01/04 01:25:58;;;;;;;23.67;12.52;;;7.70;99.90;;;;;;4913826;29;20075;-75
2024/01/04 01:28:24;;;;;;;23.08;12.57;;;7.70;99.90;;;;;;4926450;29;20036;-77
2024/01/04 01:30:50;;;;;;;22.95;11.52;;;7.80;99.90;;;;;;4927242;29;20036;-76
2024/01/04 01:33:17;;;;;;;23.00;12.15;;;7.90;99.90;;;;;;4922070;29;20036;-74
2024/01/04 01:35:42;;;;;;;24.15;13.68;;;8.00;99.90;;;;;;4923806;29;20021;-75
2024/01/04 01:38:08;;;;;;;22.55;11.68;;;8.10;99.90;;;;;;4923849;29;20016;-74
2024/01/04 01:40:34;;;;;;;23.05;11.85;;;8.10;99.90;;;;;;4930222;29;20059;-75
2024/01/04 01:43:00;;;;;;;19.98;10.32;;;8.20;99.90;;;;;;4918988;29;20496;-77
2024/01/04 01:45:26;;;;;;;23.67;12.50;;;8.30;99.90;;;;;;4919150;29;20188;-75
2024/01/04 01:47:53;;;;;;;27.90;14.90;;;8.30;99.90;;;;;;4918267;29;20039;-76
2024/01/04 01:50:21;;;;;;;25.75;13.63;;;8.40;99.90;;;;;;4929521;29;20043;-76
2024/01/04 01:52:51;;;;;;;22.63;12.57;;;8.40;99.90;;;;;;4917005;29;20040;-74
2024/01/04 01:55:19;;;;;;;22.75;12.00;;;8.50;99.90;;;;;;4927385;29;20040;-76
2024/01/04 01:57:45;;;;;;;24.40;11.13;;;8.50;99.90;;;;;;4931863;29;20016;-74
2024/01/04 02:00:13;;;;;;;21.63;11.50;;;8.60;99.90;;;;;;4923571;29;20043;-77
2024/01/04 02:02:45;;;;;;;23.42;12.65;;;8.60;99.90;;;;;;4920207;29;20034;-77
2024/01/04 02:05:13;;;;;;;24.23;11.87;;;8.70;99.90;;;;;;4925279;29;20102;-74
2024/01/04 02:07:38;;;;;;;25.35;12.90;;;8.80;99.90;;;;;;4919745;29;20024;-77
2024/01/04 02:10:06;;;;;;;25.85;12.75;;;8.80;99.90;;;;;;4901764;29;20136;-76
2024/01/04 02:12:32;;;;;;;25.85;12.68;;;8.90;99.90;;;;;;4916450;29;20043;-76
2024/01/04 02:14:57;;;;;;;23.38;10.95;;;8.90;99.90;;;;;;4906287;29;20024;-77
2024/01/04 02:17:25;;;;;;;21.80;10.93;;;8.90;99.90;;;;;;4914003;29;20048;-77
2024/01/04 02:19:52;;;;;;;27.23;13.45;;;9.00;99.90;;;;;;4899988;29;20425;-74
2024/01/04 02:22:18;;;;;;;25.45;11.02;;;9.00;99.90;;;;;;4911895;29;20081;-75
2024/01/04 02:24:44;;;;;;;25.30;10.75;;;9.10;99.90;;;;;;4914434;29;20477;-77
2024/01/04 02:27:12;;;;;;;19.27;8.27;;;9.10;99.90;;;;;;4899087;29;20032;-74
2024/01/04 02:29:38;;;;;;;17.08;7.32;;;9.20;99.90;;;;;;4899482;29;20580;-76
2024/01/04 02:32:04;;;;;;;16.30;6.95;;;9.30;99.90;;;;;;4911408;29;20107;-75
2024/01/04 02:34:30;;;;;;;12.85;6.38;;;9.30;99.90;;;;;;4911396;29;20103;-78
2024/01/04 02:36:57;;;;;;;14.65;6.70;;;9.40;99.90;;;;;;4899435;29;20036;-76
2024/01/04 02:39:23;;;;;;;16.23;7.72;;;9.40;99.90;;;;;;4902371;29;20031;-77
2024/01/04 02:41:49;;;;;;;18.73;8.68;;;9.50;99.90;;;;;;4898410;29;20017;-77
2024/01/04 02:44:15;;;;;;;17.23;8.05;;;9.60;99.90;;;;;;4898513;29;20480;-77
2024/01/04 02:46:41;;;;;;;16.50;8.40;;;9.60;99.90;;;;;;4911535;29;20124;-78
2024/01/04 02:49:08;;;;;;;14.63;6.38;;;9.60;99.90;;;;;;4903257;29;20036;-77
2024/01/04 02:51:34;;;;;;;10.93;5.28;;;9.70;99.90;;;;;;4898427;29;20382;-77
2024/01/04 02:54:00;;;;;;;9.95;4.25;;;9.70;99.90;;;;;;4898125;29;20028;-78
2024/01/04 02:56:26;;;;;;;13.15;5.32;;;9.80;99.90;;;;;;4895544;29;20161;-78
2024/01/04 02:58:52;;;;;;;11.00;4.55;;;9.80;99.90;;;;;;4899022;29;20123;-76
2024/01/04 03:01:21;;;;;;;10.90;5.40;;;9.80;99.90;;;;;;4898602;29;20100;-76
2024/01/04 03:03:51;;;;;;;14.00;6.18;;;9.80;99.90;;;;;;4901396;29;20044;-77
2024/01/04 03:06:24;;;;;;;16.92;8.13;;;9.80;99.90;;;;;;4917365;29;20024;-74
2024/01/04 03:08:51;;;;;;;22.48;9.15;;;9.80;99.90;;;;;;4928129;29;20571;-76
2024/01/04 03:11:17;;;;;;;25.80;11.63;;;9.70;99.90;;;;;;4939580;29;20051;-76
2024/01/04 03:13:43;;;;;;;27.88;11.68;;;9.70;99.90;;;;;;4947047;29;20460;-74
2024/01/04 03:16:08;;;;;;;24.05;10.20;;;9.70;99.90;;;;;;4946476;29;20028;-77
2024/01/04 03:18:34;;;;;;;17.75;7.95;;;9.70;99.90;;;;;;4948146;29;20030;-77
2024/01/04 03:21:05;;;;;;;20.95;7.20;;;9.70;99.90;;;;;;4929647;29;20031;-77
2024/01/04 03:23:31;;;;;;;11.02;5.25;;;9.70;99.90;;;;;;4944442;29;20099;-75
2024/01/04 03:25:57;;;;;;;12.18;4.82;;;9.70;99.90;;;;;;4941665;29;20416;-77
2024/01/04 03:28:23;;;;;;;10.20;4.57;;;9.80;99.90;;;;;;4940342;29;20036;-74
2024/01/04 03:30:48;;;;;;;9.88;4.65;;;9.80;99.90;;;;;;4940325;29;20103;-75
2024/01/04 03:33:14;;;;;;;10.25;4.40;;;9.80;99.90;;;;;;4939508;29;20466;-77
2024/01/04 03:35:40;;;;;;;11.75;3.50;;;9.80;99.90;;;;;;4940234;29;20432;-76
2024/01/04 03:38:06;;;;;;;7.88;3.42;;;9.80;99.90;;;;;;4943300;29;20036;-74
2024/01/04 03:40:32;;;;;;;6.47;3.03;;;9.90;99.90;;;;;;4945377;29;20059;-77
2024/01/04 03:42:58;;;;;;;9.48;3.65;;;9.90;99.90;;;;;;4947002;29;20039;-77
2024/01/04 03:45:24;;;;;;;9.85;4.18;;;9.90;99.90;;;;;;4950984;29;20038;-75
2024/01/04 03:47:50;;;;;;;8.23;3.75;;;9.90;99.90;;;;;;4953834;29;20030;-76
2024/01/04 03:50:15;;;;;;;10.80;4.30;;;9.90;99.90;;;;;;4947257;28;20047;-76
2024/01/04 03:52:41;;;;;;;12.30;4.75;;;9.90;99.90;;;;;;4943849;29;20040;-77
2024/01/04 03:55:08;;;;;;;12.82;4.60;;;9.90;99.90;;;;;;4953439;29;20048;-76
2024/01/04 03:57:34;;;;;;;10.25;4.82;;;10.00;99.90;;;;;;4938233;29;20030;-74
2024/01/04 04:00:01;;;;;;;18.50;8.35;;;10.00;99.90;;;;;;4951622;29;20031;-74
2024/01/04 04:02:27;;;;;;;15.05;6.40;;;10.00;99.90;;;;;;4949878;29;20468;-75
2024/01/04 04:04:56;;;;;;;15.50;7.32;;;10.00;99.90;;;;;;4954216;29;20028;-77
2024/01/04 04:07:23;;;;;;;16.80;8.40;;;10.10;99.90;;;;;;4952430;29;20101;-77
2024/01/04 04:09:49;;;;;;;16.70;8.65;;;10.10;99.90;;;;;;4950506;29;20091;-77
2024/01/04 04:12:15;;;;;;;17.50;8.68;;;10.10;99.90;;;;;;4944941;29;20092;-78
2024/01/04 04:14:41;;;;;;;16.83;7.55;;;10.20;99.90;;;;;;4958618;29;20094;-77
2024/01/04 04:17:07;;;;;;;13.85;6.03;;;10.20;99.90;;;;;;4942582;29;20020;-75
2024/01/04 04:19:33;;;;;;;11.93;5.53;;;10.20;99.90;;;;;;4928368;29;20066;-77
2024/01/04 04:21:59;;;;;;;13.00;5.80;;;10.20;99.90;;;;;;4943348;29;20015;-76
2024/01/04 04:24:25;;;;;;;13.32;6.40;;;10.20;99.90;;;;;;4945070;29;20700;-76
2024/01/04 04:26:51;;;;;;;11.38;5.35;;;10.30;99.90;;;;;;4943422;29;20035;-76
2024/01/04 04:29:17;;;;;;;15.32;7.10;;;10.20;99.90;;;;;;4942255;29;20051;-78
2024/01/04 04:31:43;;;;;;;15.25;6.85;;;10.20;99.90;;;;;;4941534;29;20023;-77
2024/01/04 04:34:09;;;;;;;16.90;7.22;;;10.20;99.90;;;;;;4943406;29;20551;-75
2024/01/04 04:36:35;;;;;;;13.95;6.85;;;10.30;99.90;;;;;;4945585;29;20063;-76
2024/01/04 04:39:02;;;;;;;13.25;6.45;;;10.30;99.90;;;;;;4946726;29;20027;-77
2024/01/04 04:41:28;;;;;;;13.82;6.60;;;10.30;99.90;;;;;;4945477;29;20078;-74
2024/01/04 04:43:54;;;;;;;13.55;6.85;;;10.30;99.90;;;;;;4945371;29;20039;-77
2024/01/04 04:46:20;;;;;;;13.57;7.25;;;10.30;99.90;;;;;;4949225;29;20020;-76
2024/01/04 04:48:46;;;;;;;17.85;7.60;;;10.30;99.90;;;;;;4956467;29;20031;-74
2024/01/04 04:51:12;;;;;;;16.05;7.15;;;10.40;99.90;;;;;;4942263;29;20460;-77
2024/01/04 04:53:38;;;;;;;13.93;7.32;;;10.40;99.90;;;;;;4942764;29;20524;-78
2024/01/04 04:56:04;;;;;;;16.90;7.75;;;10.40;99.90;;;;;;4938346;29;20606;-77
2024/01/04 04:58:30;;;;;;;14.90;7.50;;;10.40;99.90;;;;;;4937294;29;20126;-76
2024/01/04 05:00:56;;;;;;;14.02;7.55;;;10.40;99.90;;;;;;4937049;29;20508;-79
2024/01/04 05:03:22;;;;;;;18.25;7.32;;;10.40;99.90;;;;;;4936673;29;20031;-76
2024/01/04 05:05:49;;;;;;;14.18;7.32;;;10.40;99.90;;;;;;4937106;29;20110;-79
2024/01/04 05:08:14;;;;;;;18.00;8.63;;;10.40;99.90;;;;;;4936371;29;20075;-77
2024/01/04 05:10:41;;;;;;;15.18;7.05;;;10.40;99.90;;;;;;4944257;28;20048;-78
2024/01/04 05:13:07;;;;;;;17.13;7.78;;;10.20;99.90;;;;;;4937134;29;20043;-78
2024/01/04 05:15:33;;;;;;;37.47;22.17;;;10.00;99.90;;;;;;4938034;29;20031;-78
2024/01/04 05:17:59;;;;;;;27.55;16.08;;;10.00;99.90;;;;;;4926740;29;20108;-79
2024/01/04 05:20:25;;;;;;;23.42;12.85;;;10.00;99.90;;;;;;4936092;29;20126;-79
2024/01/04 05:22:51;;;;;;;17.30;9.93;;;10.00;99.90;;;;;;4936995;29;20031;-77
2024/01/04 05:25:16;;;;;;;18.50;10.40;;;10.00;99.90;;;;;;4926125;29;20066;-76
2024/01/04 05:27:42;;;;;;;17.33;8.48;;;9.90;99.90;;;;;;4936767;29;20495;-79
2024/01/04 05:30:12;;;;;;;15.18;7.32;;;9.80;99.90;;;;;;4936630;29;20141;-78
2024/01/04 05:32:38;;;;;;;21.55;9.50;;;9.80;99.90;;;;;;4925950;29;20055;-77
2024/01/04 05:35:04;;;;;;;33.15;18.23;;;9.70;99.90;;;;;;4937001;29;20032;-78
2024/01/04 05:37:30;;;;;;;39.20;19.70;;;9.70;99.90;;;;;;4935813;29;20388;-83
2024/01/04 05:39:56;;;;;;;37.70;21.02;;;9.70;99.90;;;;;;4936097;29;20048;-78
2024/01/04 05:42:22;;;;;;;40.05;21.10;;;9.60;99.90;;;;;;4921127;29;20027;-83
2024/01/04 05:44:48;;;;;;;41.33;20.95;;;9.60;99.90;;;;;;4935898;29;20024;-82
2024/01/04 05:47:14;;;;;;;49.85;29.50;;;9.50;99.90;;;;;;4935573;29;20027;-83
2024/01/04 05:49:39;;;;;;;61.60;31.08;;;9.50;99.90;;;;;;4935728;29;20039;-83
2024/01/04 05:52:06;;;;;;;30.98;16.52;;;9.50;99.90;;;;;;4934794;29;20027;-79
2024/01/04 05:54:32;;;;;;;42.63;23.75;;;9.40;99.90;;;;;;4923175;29;20085;-83
2024/01/04 05:56:58;;;;;;;36.22;18.58;;;9.40;99.90;;;;;;4939147;29;20428;-83
2024/01/04 05:59:24;;;;;;;27.27;15.48;;;9.30;99.90;;;;;;4935920;29;20031;-82
2024/01/04 06:01:51;;;;;;;35.35;19.98;;;9.30;99.90;;;;;;4935141;29;20083;-83
2024/01/04 06:04:17;;;;;;;32.03;17.45;;;9.30;99.90;;;;;;4934299;29;20131;-75
2024/01/04 06:06:43;;;;;;;34.10;18.52;;;9.30;99.90;;;;;;4934906;29;20012;-77
2024/01/04 06:09:10;;;;;;;51.20;30.00;;;9.30;99.90;;;;;;4942200;29;20396;-80
2024/01/04 06:11:38;;;;;;;34.40;19.23;;;9.40;99.90;;;;;;4935652;29;20116;-83
2024/01/04 06:14:06;;;;;;;36.05;18.48;;;9.40;99.90;;;;;;4935256;29;20054;-83
2024/01/04 06:16:32;;;;;;;35.50;19.85;;;9.30;99.90;;;;;;4919215;29;20093;-75
2024/01/04 06:18:58;;;;;;;41.00;22.52;;;9.20;99.90;;;;;;4937659;29;20724;-83
2024/01/04 06:21:24;;;;;;;34.67;19.00;;;9.30;99.90;;;;;;4934332;29;20027;-84
2024/01/04 06:23:51;;;;;;;64.40;33.80;;;9.30;99.90;;;;;;4934543;29;20036;-83
2024/01/04 06:26:18;;;;;;;42.03;24.15;;;9.30;99.90;;;;;;4934998;29;20035;-81
2024/01/04 06:28:44;;;;;;;42.25;25.40;;;9.30;99.90;;;;;;4935377;29;20024;-83
2024/01/04 06:31:10;;;;;;;38.67;22.90;;;9.20;99.90;;;;;;4934175;29;20037;-83
2024/01/04 06:33:36;;;;;;;59.05;40.03;;;9.20;99.90;;;;;;4934044;29;20586;-76
2024/01/04 06:36:03;;;;;;;85.75;53.95;;;9.10;99.90;;;;;;4937143;29;20028;-79
2024/01/04 06:38:29;;;;;;;84.18;55.22;;;9.00;99.90;;;;;;4942085;29;20492;-84
2024/01/04 06:40:58;;;;;;;62.60;41.30;;;9.10;99.90;;;;;;4931048;29;20427;-77
2024/01/04 06:43:24;;;;;;;58.28;40.78;;;9.10;99.90;;;;;;4922801;29;20047;-82
2024/01/04 06:45:51;;;;;;;72.25;48.00;;;9.00;99.90;;;;;;4927558;29;20032;-82
2024/01/04 06:48:17;;;;;;;72.20;43.33;;;9.10;99.90;;;;;;4936141;29;20082;-77
2024/01/04 06:50:46;;;;;;;80.82;45.95;;;9.10;99.90;;;;;;4934664;29;20035;-83
2024/01/04 06:53:14;;;;;;;65.00;41.33;;;9.10;99.90;;;;;;4934129;29;20123;-82
2024/01/04 06:55:40;;;;;;;64.63;41.22;;;9.20;99.90;;;;;;4934413;29;20024;-81
2024/01/04 06:58:08;;;;;;;55.65;32.63;;;9.20;99.90;;;;;;4934850;29;20055;-83
2024/01/04 07:00:34;;;;;;;52.85;27.85;;;9.30;99.90;;;;;;4934642;29;20093;-83
2024/01/04 07:03:00;;;;;;;60.20;40.88;;;9.30;99.90;;;;;;4934759;29;20110;-78
2024/01/04 07:05:26;;;;;;;56.72;33.08;;;9.40;99.90;;;;;;4934763;29;20027;-78
2024/01/04 07:07:51;;;;;;;57.90;34.85;;;9.40;99.90;;;;;;4934607;29;20501;-78
2024/01/04 07:10:17;;;;;;;53.95;32.20;;;9.40;99.90;;;;;;4934103;29;20039;-77
2024/01/04 07:12:43;;;;;;;60.60;31.13;;;9.40;99.90;;;;;;4934616;29;20155;-85
2024/01/04 07:15:12;;;;;;;55.40;35.03;;;9.50;99.90;;;;;;4934182;29;20036;-78
2024/01/04 07:17:39;;;;;;;60.70;37.08;;;9.50;99.90;;;;;;4934597;29;20380;-77
2024/01/04 07:20:06;;;;;;;54.25;32.47;;;9.60;99.90;;;;;;4933874;29;20024;-80
2024/01/04 07:22:35;;;;;;;59.28;39.20;;;9.60;99.90;;;;;;4934039;29;20035;-83
2024/01/04 07:25:02;;;;;;;76.03;47.45;;;9.50;99.90;;;;;;4933812;29;20480;-79
2024/01/04 07:27:28;;;;;;;111.05;63.85;;;9.50;99.90;;;;;;4935005;29;20130;-80
2024/01/04 07:29:55;;;;;;;61.30;35.60;;;9.40;99.90;;;;;;4933682;29;20042;-83
2024/01/04 07:32:21;;;;;;;36.72;20.63;;;9.40;99.90;;;;;;4933902;29;20028;-75
2024/01/04 07:34:47;;;;;;;23.23;12.43;;;9.50;99.90;;;;;;4934654;29;20035;-80
2024/01/04 07:37:14;;;;;;;18.77;9.15;;;9.70;99.90;;;;;;4934127;29;20028;-81
2024/01/04 07:39:41;;;;;;;21.25;10.35;;;10.00;99.90;;;;;;4934262;29;20039;-83
2024/01/04 07:42:07;;;;;;;19.58;11.63;;;10.20;99.90;;;;;;4934144;29;20035;-79
2024/01/04 07:44:33;;;;;;;28.02;12.93;;;10.20;99.90;;;;;;4934677;29;20035;-83
2024/01/04 07:46:59;;;;;;;21.58;9.75;;;10.30;99.90;;;;;;4934329;29;20061;-81
2024/01/04 07:49:25;;;;;;;19.60;8.38;;;10.40;99.90;;;;;;4935231;29;20078;-80
2024/01/04 07:51:52;;;;;;;18.33;9.73;;;10.50;99.90;;;;;;4935044;29;20484;-82
2024/01/04 07:54:18;;;;;;;17.65;9.75;;;10.70;99.90;;;;;;4937917;29;20036;-83
2024/01/04 07:56:44;;;;;;;21.70;11.40;;;10.80;99.90;;;;;;4937566;29;20055;-79
2024/01/04 07:59:10;;;;;;;23.20;13.20;;;10.80;99.90;;;;;;4937481;29;20122;-83
2024/01/04 08:01:36;;;;;;;27.13;13.80;;;10.80;99.90;;;;;;4937499;29;20083;-83
2024/01/04 08:04:03;;;;;;;21.95;11.93;;;10.90;99.90;;;;;;4937456;29;20384;-83
2024/01/04 08:06:30;;;;;;;16.98;9.00;;;10.90;99.90;;;;;;4937545;29;20028;-81
2024/01/04 08:08:57;;;;;;;31.77;17.02;;;11.00;99.90;;;;;;4937114;29;20054;-83
2024/01/04 08:11:23;;;;;;;28.13;16.33;;;11.10;99.90;;;;;;4937254;29;20047;-83
2024/01/04 08:13:51;;;;;;;22.92;14.20;;;11.10;99.90;;;;;;4937834;29;20028;-82
2024/01/04 08:16:18;;;;;;;31.00;18.58;;;11.10;99.90;;;;;;4937594;29;20046;-82
2024/01/04 08:18:44;;;;;;;31.00;17.17;;;11.10;99.90;;;;;;4937205;29;20103;-81
2024/01/04 08:21:10;;;;;;;20.77;10.90;;;11.10;99.90;;;;;;4937147;29;20066;-77
2024/01/04 08:23:41;;;;;;;20.38;10.27;;;11.00;99.90;;;;;;4937844;29;20531;-82
2024/01/04 08:26:08;;;;;;;19.83;10.98;;;10.90;99.90;;;;;;4936795;29;20047;-82
2024/01/04 08:28:33;;;;;;;19.92;11.10;;;10.90;99.90;;;;;;4937340;29;20023;-83
2024/01/04 08:30:59;;;;;;;23.23;14.00;;;11.00;99.90;;;;;;4936550;29;20047;-82
2024/01/04 08:33:25;;;;;;;25.50;14.50;;;11.00;99.90;;;;;;4937189;29;20020;-82
2024/01/04 08:35:51;;;;;;;18.45;11.02;;;11.00;99.90;;;;;;4936783;29;20488;-77
2024/01/04 08:38:17;;;;;;;21.77;11.60;;;10.90;99.90;;;;;;4937196;29;20028;-80
2024/01/04 08:40:43;;;;;;;16.95;9.15;;;11.00;99.90;;;;;;4936587;29;20103;-83
2024/01/04 08:43:09;;;;;;;21.23;10.25;;;10.90;99.90;;;;;;4936999;29;20019;-80
2024/01/04 08:45:35;;;;;;;17.95;8.73;;;10.90;99.90;;;;;;4936623;29;20119;-82
2024/01/04 08:48:00;;;;;;;16.83;8.38;;;10.90;99.90;;;;;;4936687;29;20042;-83
2024/01/04 08:50:26;;;;;;;18.83;9.30;;;10.90;99.90;;;;;;4936426;29;20039;-80
2024/01/04 08:52:52;;;;;;;16.02;7.63;;;10.90;99.90;;;;;;4936688;29;20031;-81
2024/01/04 08:55:20;;;;;;;13.52;6.78;;;10.90;99.90;;;;;;4936658;29;20506;-81
2024/01/04 08:57:46;;;;;;;16.42;8.18;;;10.90;99.90;;;;;;4936623;29;20036;-82
2024/01/04 09:00:14;;;;;;;17.10;7.20;;;10.90;99.90;;;;;;4936381;29;20039;-77
2024/01/04 09:02:41;;;;;;;15.80;8.10;;;10.90;99.90;;;;;;4936276;29;20483;-82
2024/01/04 09:05:08;;;;;;;31.83;17.60;;;11.00;99.90;;;;;;4936083;29;20043;-82
2024/01/04 09:07:34;;;;;;;44.75;21.77;;;11.10;99.90;;;;;;4936538;29;20024;-81
2024/01/04 09:10:00;;;;;;;47.75;27.10;;;11.00;99.90;;;;;;4936007;29;20058;-80
2024/01/04 09:12:28;;;;;;;57.70;36.90;;;11.00;99.90;;;;;;4936862;29;20023;-82
2024/01/04 09:14:55;;;;;;;55.70;34.80;;;11.10;99.90;;;;;;4936151;29;20028;-77
2024/01/04 09:17:21;;;;;;;58.03;36.88;;;11.10;99.90;;;;;;4936653;29;20038;-81
2024/01/04 09:19:47;;;;;;;191.82;108.10;;;11.20;99.90;;;;;;4935811;29;20027;-78
2024/01/04 09:22:13;;;;;;;99.82;61.92;;;11.30;99.90;;;;;;4936175;29;20023;-83
2024/01/04 09:24:39;;;;;;;81.22;51.83;;;11.30;99.90;;;;;;4918794;29;20087;-82
2024/01/04 09:27:05;;;;;;;96.22;60.85;;;11.30;99.90;;;;;;4936342;29;20102;-82
2024/01/04 09:29:31;;;;;;;115.05;71.35;;;11.40;99.90;;;;;;4935864;29;20093;-80
2024/01/04 09:31:57;;;;;;;112.50;74.85;;;11.40;99.90;;;;;;4935940;29;20495;-81
2024/01/04 09:34:24;;;;;;;110.82;76.25;;;11.50;99.90;;;;;;4935775;29;20062;-76
2024/01/04 09:36:50;;;;;;;92.85;61.50;;;11.50;99.90;;;;;;4935968;29;20078;-82
2024/01/04 09:39:18;;;;;;;78.10;55.38;;;11.60;99.90;;;;;;4935644;29;20026;-83
2024/01/04 09:41:47;;;;;;;91.13;62.38;;;11.70;99.90;;;;;;4935814;29;20024;-85
2024/01/04 09:44:13;;;;;;;118.97;78.32;;;11.60;99.90;;;;;;4935835;29;20028;-82
2024/01/04 09:46:41;;;;;;;101.53;66.47;;;11.60;99.90;;;;;;4935494;29;20059;-82
2024/01/04 09:49:09;;;;;;;41.22;25.80;;;11.70;99.90;;;;;;4935532;29;20032;-83
2024/01/04 09:51:38;;;;;;;30.88;20.77;;;11.60;99.90;;;;;;4935361;29;20035;-82
2024/01/04 09:54:04;;;;;;;24.92;15.18;;;11.60;99.90;;;;;;4935553;29;20023;-81
2024/01/04 09:56:33;;;;;;;22.77;12.18;;;11.60;99.90;;;;;;4935530;29;20503;-81
2024/01/04 09:58:59;;;;;;;22.35;10.95;;;11.70;99.90;;;;;;4935235;29;20020;-79
2024/01/04 10:01:33;;;;;;;21.98;10.82;;;11.70;99.90;;;;;;4935452;29;20103;-78
2024/01/04 10:04:12;;;;;;;13.20;6.25;;;11.70;99.90;;;;;;4935297;29;20034;-82
2024/01/04 10:06:43;;;;;;;17.30;7.70;;;11.70;99.90;;;;;;4935609;29;20028;-82
2024/01/04 10:09:19;;;;;;;14.48;7.22;;;11.70;99.90;;;;;;4935309;29;20369;-83
2024/01/04 10:11:57;;;;;;;9.93;4.80;;;11.70;99.90;;;;;;4934657;29;20049;-82
2024/01/04 10:14:27;;;;;;;15.68;6.18;;;11.80;99.90;;;;;;4935235;29;20031;-81
2024/01/04 10:16:56;;;;;;;13.75;6.57;;;11.70;99.90;;;;;;4934665;29;20106;-82
2024/01/04 10:19:23;;;;;;;10.07;4.88;;;11.80;99.90;;;;;;4934855;29;20445;-83
2024/01/04 10:21:49;;;;;;;13.10;5.57;;;11.80;99.90;;;;;;4934938;29;20023;-82
2024/01/04 10:24:23;;;;;;;11.07;5.20;;;11.90;99.90;;;;;;4934750;29;20070;-82
2024/01/04 10:26:59;;;;;;;9.88;5.00;;;12.00;99.90;;;;;;4935028;29;20042;-82
2024/01/04 10:29:29;;;;;;;14.52;5.25;;;12.00;99.90;;;;;;4934456;29;20042;-81
2024/01/04 10:32:05;;;;;;;13.68;5.18;;;12.10;99.90;;;;;;4934949;29;20384;-81
2024/01/04 10:34:36;;;;;;;12.10;4.95;;;12.20;99.90;;;;;;4940095;29;20063;-83
2024/01/04 10:37:17;;;;;;;9.18;3.83;;;12.30;99.90;;;;;;4934714;29;20059;-79
2024/01/04 10:39:55;;;;;;;7.07;3.70;;;12.30;99.90;;;;;;4924115;29;20028;-82
2024/01/04 10:42:22;;;;;;;5.63;2.58;;;12.30;99.90;;;;;;4934955;29;20106;-79
2024/01/04 10:44:55;;;;;;;5.57;2.85;;;12.40;99.90;;;;;;4934652;29;20055;-78
2024/01/04 10:47:21;;;;;;;9.57;4.97;;;12.30;99.90;;;;;;4934692;29;20055;-82
2024/01/04 10:49:49;;;;;;;10.05;4.38;;;12.30;99.90;;;;;;4934518;29;20036;-83
2024/01/04 10:52:16;;;;;;;11.15;4.60;;;12.30;99.90;;;;;;4934468;29;20043;-83
2024/01/04 10:54:43;;;;;;;6.93;3.10;;;12.30;99.90;;;;;;4934548;29;20492;-83
2024/01/04 10:57:10;;;;;;;4.15;1.90;;;12.30;99.90;;;;;;4934261;29;20026;-79
2024/01/04 10:59:37;;;;;;;6.55;2.67;;;12.30;99.90;;;;;;4934637;29;20480;-83
2024/01/04 11:02:03;;;;;;;5.75;3.00;;;12.30;99.90;;;;;;4934051;29;20107;-82
2024/01/04 11:04:30;;;;;;;5.15;2.72;;;12.50;99.90;;;;;;4934750;29;20055;-82
2024/01/04 11:06:57;;;;;;;6.43;3.35;;;12.60;99.90;;;;;;4934172;29;20472;-80
2024/01/04 11:09:24;;;;;;;7.18;3.13;;;12.70;99.90;;;;;;4934807;29;20110;-82
2024/01/04 11:11:52;;;;;;;8.68;4.00;;;12.80;99.90;;;;;;4933944;29;20047;-78
2024/01/04 11:14:23;;;;;;;12.68;5.30;;;12.80;99.90;;;;;;4934688;29;20125;-82
2024/01/04 11:17:16;;;;;;;10.90;4.78;;;12.80;99.90;;;;;;4934650;29;20020;-82
2024/01/04 11:19:56;;;;;;;15.20;6.47;;;12.90;99.90;;;;;;4934270;29;20055;-81
2024/01/04 11:22:25;;;;;;;16.70;7.15;;;13.00;99.90;;;;;;4934696;29;20092;-76
2024/01/04 11:24:59;;;;;;;17.65;7.25;;;13.10;99.90;;;;;;4934405;29;20440;-80
2024/01/04 11:27:27;;;;;;;18.27;7.75;;;13.10;99.90;;;;;;4936566;29;20054;-83
2024/01/04 11:29:54;;;;;;;17.73;8.18;;;13.00;99.90;;;;;;4938493;29;20039;-79
2024/01/04 11:32:21;;;;;;;13.75;6.78;;;13.10;99.90;;;;;;4938241;29;20131;-82
2024/01/04 11:34:48;;;;;;;20.45;7.68;;;13.00;99.90;;;;;;4925930;29;20507;-79
2024/01/04 11:37:22;;;;;;;16.30;7.03;;;13.10;99.90;;;;;;4937942;29;20040;-80
2024/01/04 11:40:03;;;;;;;16.20;6.82;;;13.20;99.90;;;;;;4926471;29;20035;-82
2024/01/04 11:42:39;;;;;;;13.15;5.00;;;13.30;99.90;;;;;;4938272;29;20483;-82
2024/01/04 11:45:16;;;;;;;8.85;4.13;;;13.30;99.90;;;;;;4939479;29;20028;-78
2024/01/04 11:47:45;;;;;;;11.70;5.07;;;13.60;99.90;;;;;;4938744;29;20032;-79
2024/01/04 11:50:22;;;;;;;6.75;3.13;;;13.80;99.90;;;;;;4939586;28;20099;-81
2024/01/04 11:52:49;;;;;;;8.18;3.22;;;13.90;99.90;;;;;;4939211;29;20106;-81
2024/01/04 11:55:25;;;;;;;7.88;3.15;;;13.90;99.90;;;;;;4938984;29;20535;-82
2024/01/04 11:58:14;;;;;;;6.10;2.97;;;14.00;99.90;;;;;;4939935;29;20032;-82
2024/01/04 12:00:47;;;;;;;4.60;2.28;;;14.00;99.90;;;;;;4940436;29;20074;-80
2024/01/04 12:03:15;;;;;;;8.10;2.90;;;14.00;99.90;;;;;;4939077;29;20088;-76
2024/01/04 12:05:46;;;;;;;6.68;3.22;;;14.00;99.90;;;;;;4939570;29;20039;-78
2024/01/04 12:08:30;;;;;;;4.32;2.03;;;14.00;99.90;;;;;;4938746;29;20106;-74
2024/01/04 12:10:59;;;;;;;6.18;3.20;;;14.00;99.90;;;;;;4939280;29;20062;-80
2024/01/04 12:13:25;;;;;;;9.35;4.03;;;14.10;99.90;;;;;;4939293;29;20106;-81
2024/01/04 12:15:51;;;;;;;7.40;3.50;;;14.10;99.90;;;;;;4938566;29;20035;-78
2024/01/04 12:18:18;;;;;;;6.63;3.47;;;14.20;99.90;;;;;;4938301;29;20432;-81
2024/01/04 12:20:45;;;;;;;10.18;3.17;;;14.20;99.90;;;;;;4937769;29;20027;-81
2024/01/04 12:23:12;;;;;;;6.53;2.75;;;14.20;99.90;;;;;;4937140;29;20051;-78
2024/01/04 12:25:39;;;;;;;6.30;2.30;;;14.20;99.90;;;;;;4936628;29;20047;-81
2024/01/04 12:28:09;;;;;;;8.10;2.40;;;14.30;99.90;;;;;;4937036;29;20034;-82
2024/01/04 12:30:38;;;;;;;8.15;2.80;;;14.30;99.90;;;;;;4938455;29;20122;-83
2024/01/04 12:33:04;;;;;;;11.68;3.72;;;14.30;99.90;;;;;;4939658;29;20494;-82
2024/01/04 12:35:30;;;;;;;7.93;2.58;;;14.30;99.90;;;;;;4938856;29;20032;-82
2024/01/04 12:37:59;;;;;;;6.50;2.70;;;14.40;99.90;;;;;;4936279;29;20373;-81